createdAt,value
2023-10-28T09:56:56.803Z,18.800000
2023-10-28T10:01:32.836Z,25.900000
2023-10-28T10:05:20.887Z,26.100000
2023-10-28T11:38:08.984Z,26.200000
2023-10-28T11:43:20.645Z,26.400000
2023-10-28T11:45:20.638Z,26.500000
2023-10-28T11:50:20.692Z,26.600000
2023-10-28T12:12:32.668Z,26.366667
2023-10-28T12:26:44.788Z,26.700000
2023-10-28T12:41:08.735Z,26.700000
2023-10-28T12:54:44.731Z,26.787500
2023-10-28T12:59:08.739Z,25.900000
2023-10-28T13:04:23.733Z,26.400000
2023-10-28T13:10:56.935Z,25.800000
2023-10-28T13:27:56.763Z,23.900000
2023-10-28T13:30:44.879Z,22.400000
2023-10-28T13:42:20.572Z,21.933333
2023-10-28T14:40:20.674Z,21.900000
2023-10-28T14:48:32.746Z,20.550000
2023-10-28T14:51:44.914Z,20.450000
2023-10-28T14:55:20.693Z,20.336364
2023-10-28T15:00:56.718Z,20.300000
2023-10-28T15:07:44.694Z,20.300000
2023-10-28T15:10:44.742Z,20.357143
2023-10-28T15:16:56.718Z,20.380000
2023-10-28T15:24:08.765Z,20.433333
2023-10-28T15:25:20.653Z,20.000000
2023-10-28T15:42:20.664Z,19.957143
2023-10-28T20:01:44.612Z,19.266667
2023-10-28T20:06:08.592Z,18.785714
2023-10-28T20:11:20.811Z,18.800000
2023-10-28T20:17:32.751Z,17.783333
2023-10-28T20:20:44.801Z,17.033333
2023-10-28T20:25:44.680Z,16.900000
2023-10-28T20:30:44.673Z,16.750000
2023-10-28T20:35:20.606Z,17.050000
2023-10-28T20:41:32.650Z,17.233333
2023-10-28T21:04:56.556Z,17.100000
2023-10-28T21:11:44.701Z,16.900000
2023-10-28T21:15:20.593Z,17.000000
2023-10-28T21:22:56.661Z,17.040000
2023-10-28T21:25:32.629Z,17.200000
2023-10-28T21:33:56.719Z,17.300000
2023-10-28T21:35:47.270Z,16.866667
2023-10-28T21:44:08.580Z,16.900000
2023-10-28T21:45:32.676Z,16.900000
2023-10-28T21:51:44.655Z,16.900000
2023-10-28T21:57:32.552Z,17.050000
2023-10-28T22:04:32.612Z,17.200000
2023-10-28T22:15:20.502Z,17.000000
2023-10-28T22:22:08.631Z,16.920000
2023-10-28T22:28:56.634Z,16.733333
2023-10-28T22:31:32.605Z,16.800000
2023-10-28T22:37:20.520Z,16.750000
2023-10-28T22:40:56.677Z,16.550000
2023-10-28T22:45:20.528Z,16.450000
2023-10-28T22:50:20.564Z,16.233333
2023-10-28T22:56:32.500Z,16.214286
2023-10-28T23:00:32.646Z,16.087500
2023-10-28T23:05:32.575Z,16.050000
2023-10-28T23:10:20.475Z,16.184211
2023-10-28T23:15:32.624Z,16.582353
2023-10-28T23:21:20.512Z,16.884615
2023-10-28T23:25:20.522Z,16.950000
2023-10-28T23:30:32.506Z,16.866667
2023-10-28T23:35:32.630Z,17.016667
2023-10-28T23:40:44.621Z,16.975000
2023-10-28T23:45:32.681Z,16.993333
2023-10-28T23:50:20.711Z,17.050000
2023-10-28T23:55:44.518Z,17.154545
